sensor_id;sensor_type;location;lat;lon;timestamp;temperature;humidity
35395;DHT22;21500;45.308;9.488;2022-10-22T00:00:00;17.70;99.90
35395;DHT22;21500;45.308;9.488;2022-10-22T00:02:26;17.80;99.90
35395;DHT22;21500;45.308;9.488;2022-10-22T00:04:52;17.80;99.90
35395;DHT22;21500;45.308;9.488;2022-10-22T00:07:19;17.80;99.90
35395;DHT22;21500;45.308;9.488;2022-10-22T00:09:46;17.80;99.90
35395;DHT22;21500;45.308;9.488;2022-10-22T00:12:13;17.80;99.90
35395;DHT22;21500;45.308;9.488;2022-10-22T00:14:41;17.80;99.90
35395;DHT22;21500;45.308;9.488;2022-10-22T00:17:07;17.80;99.90
35395;DHT22;21500;45.308;9.488;2022-10-22T00:19:34;17.80;99.90
35395;DHT22;21500;45.308;9.488;2022-10-22T00:22:01;17.80;99.90
35395;DHT22;21500;45.308;9.488;2022-10-22T00:24:33;17.80;99.90
35395;DHT22;21500;45.308;9.488;2022-10-22T00:27:00;17.80;99.90
35395;DHT22;21500;45.308;9.488;2022-10-22T00:29:26;17.80;99.90
35395;DHT22;21500;45.308;9.488;2022-10-22T00:31:51;17.80;99.90
35395;DHT22;21500;45.308;9.488;2022-10-22T00:34:19;17.80;99.90
35395;DHT22;21500;45.308;9.488;2022-10-22T00:36:50;17.80;99.90
35395;DHT22;21500;45.308;9.488;2022-10-22T00:39:18;17.90;99.90
35395;DHT22;21500;45.308;9.488;2022-10-22T00:41:45;17.90;99.90
35395;DHT22;21500;45.308;9.488;2022-10-22T00:45:05;17.90;99.90
35395;DHT22;21500;45.308;9.488;2022-10-22T00:47:43;17.90;99.90
35395;DHT22;21500;45.308;9.488;2022-10-22T00:52:54;17.90;99.90
35395;DHT22;21500;45.308;9.488;2022-10-22T00:55:24;17.90;99.90
35395;DHT22;21500;45.308;9.488;2022-10-22T00:57:51;17.90;99.90
35395;DHT22;21500;45.308;9.488;2022-10-22T01:00:18;17.90;99.90
35395;DHT22;21500;45.308;9.488;2022-10-22T01:02:45;17.90;99.90
35395;DHT22;21500;45.308;9.488;2022-10-22T01:05:11;18.00;99.90
35395;DHT22;21500;45.308;9.488;2022-10-22T01:07:42;17.90;99.90
35395;DHT22;21500;45.308;9.488;2022-10-22T01:10:26;17.90;99.90
35395;DHT22;21500;45.308;9.488;2022-10-22T01:16:10;18.00;99.90
35395;DHT22;21500;45.308;9.488;2022-10-22T01:21:48;17.90;99.90
35395;DHT22;21500;45.308;9.488;2022-10-22T01:24:40;18.00;99.90
35395;DHT22;21500;45.308;9.488;2022-10-22T01:27:17;17.90;99.90
35395;DHT22;21500;45.308;9.488;2022-10-22T01:29:53;17.90;99.90
35395;DHT22;21500;45.308;9.488;2022-10-22T01:32:25;17.90;99.90
35395;DHT22;21500;45.308;9.488;2022-10-22T01:34:59;17.90;99.90
35395;DHT22;21500;45.308;9.488;2022-10-22T01:37:29;18.00;99.90
35395;DHT22;21500;45.308;9.488;2022-10-22T01:39:58;17.90;99.90
35395;DHT22;21500;45.308;9.488;2022-10-22T01:42:25;17.90;99.90
35395;DHT22;21500;45.308;9.488;2022-10-22T01:44:51;18.00;99.90
35395;DHT22;21500;45.308;9.488;2022-10-22T01:47:31;18.00;99.90
35395;DHT22;21500;45.308;9.488;2022-10-22T01:58:43;18.00;99.90
35395;DHT22;21500;45.308;9.488;2022-10-22T02:03:54;18.00;99.90
35395;DHT22;21500;45.308;9.488;2022-10-22T02:06:22;18.00;99.90
35395;DHT22;21500;45.308;9.488;2022-10-22T02:08:50;18.00;99.90
35395;DHT22;21500;45.308;9.488;2022-10-22T02:11:17;18.10;99.90
35395;DHT22;21500;45.308;9.488;2022-10-22T02:13:47;18.10;99.90
35395;DHT22;21500;45.308;9.488;2022-10-22T02:16:23;18.00;99.90
35395;DHT22;21500;45.308;9.488;2022-10-22T02:18:53;18.00;99.90
35395;DHT22;21500;45.308;9.488;2022-10-22T02:21:25;18.00;99.90
35395;DHT22;21500;45.308;9.488;2022-10-22T02:23:57;18.00;99.90
35395;DHT22;21500;45.308;9.488;2022-10-22T02:26:38;18.00;99.90
35395;DHT22;21500;45.308;9.488;2022-10-22T02:29:14;18.00;99.90
35395;DHT22;21500;45.308;9.488;2022-10-22T02:31:45;18.10;99.90
35395;DHT22;21500;45.308;9.488;2022-10-22T02:34:16;18.00;99.90
35395;DHT22;21500;45.308;9.488;2022-10-22T02:36:42;18.00;99.90
35395;DHT22;21500;45.308;9.488;2022-10-22T02:39:10;18.00;99.90
35395;DHT22;21500;45.308;9.488;2022-10-22T02:41:37;18.10;99.90
35395;DHT22;21500;45.308;9.488;2022-10-22T02:44:08;18.00;99.90
35395;DHT22;21500;45.308;9.488;2022-10-22T02:46:34;18.00;99.90
35395;DHT22;21500;45.308;9.488;2022-10-22T02:49:00;18.00;99.90
35395;DHT22;21500;45.308;9.488;2022-10-22T02:51:25;18.00;99.90
35395;DHT22;21500;45.308;9.488;2022-10-22T02:53:51;18.00;99.90
35395;DHT22;21500;45.308;9.488;2022-10-22T02:56:17;18.10;99.90
35395;DHT22;21500;45.308;9.488;2022-10-22T02:58:43;18.00;99.90
35395;DHT22;21500;45.308;9.488;2022-10-22T03:01:08;18.00;99.90
35395;DHT22;21500;45.308;9.488;2022-10-22T03:03:34;18.00;99.90
35395;DHT22;21500;45.308;9.488;2022-10-22T03:06:00;18.00;99.90
35395;DHT22;21500;45.308;9.488;2022-10-22T03:08:26;18.10;99.90
35395;DHT22;21500;45.308;9.488;2022-10-22T03:10:51;18.10;99.90
35395;DHT22;21500;45.308;9.488;2022-10-22T03:13:17;18.10;99.90
35395;DHT22;21500;45.308;9.488;2022-10-22T03:15:43;18.10;99.90
35395;DHT22;21500;45.308;9.488;2022-10-22T03:18:09;18.10;99.90
35395;DHT22;21500;45.308;9.488;2022-10-22T03:20:35;18.10;99.90
35395;DHT22;21500;45.308;9.488;2022-10-22T03:23:01;18.10;99.90
35395;DHT22;21500;45.308;9.488;2022-10-22T03:25:28;18.10;99.90
35395;DHT22;21500;45.308;9.488;2022-10-22T03:28:00;18.10;99.90
35395;DHT22;21500;45.308;9.488;2022-10-22T03:30:27;18.10;99.90
35395;DHT22;21500;45.308;9.488;2022-10-22T03:32:52;18.10;99.90
35395;DHT22;21500;45.308;9.488;2022-10-22T03:35:18;18.00;99.90
35395;DHT22;21500;45.308;9.488;2022-10-22T03:37:44;18.00;99.90
35395;DHT22;21500;45.308;9.488;2022-10-22T03:40:10;18.00;99.90
35395;DHT22;21500;45.308;9.488;2022-10-22T03:42:37;18.00;99.90
35395;DHT22;21500;45.308;9.488;2022-10-22T03:45:03;18.00;99.90
35395;DHT22;21500;45.308;9.488;2022-10-22T03:47:29;18.00;99.90
35395;DHT22;21500;45.308;9.488;2022-10-22T03:49:55;18.00;99.90
35395;DHT22;21500;45.308;9.488;2022-10-22T03:52:21;18.00;99.90
35395;DHT22;21500;45.308;9.488;2022-10-22T03:54:47;18.00;99.90
35395;DHT22;21500;45.308;9.488;2022-10-22T03:57:12;18.00;99.90
35395;DHT22;21500;45.308;9.488;2022-10-22T03:59:44;17.90;99.90
35395;DHT22;21500;45.308;9.488;2022-10-22T04:02:11;18.00;99.90
35395;DHT22;21500;45.308;9.488;2022-10-22T04:04:38;18.00;99.90
35395;DHT22;21500;45.308;9.488;2022-10-22T04:07:05;17.90;99.90
35395;DHT22;21500;45.308;9.488;2022-10-22T04:09:32;18.00;99.90
35395;DHT22;21500;45.308;9.488;2022-10-22T04:12:05;18.00;99.90
35395;DHT22;21500;45.308;9.488;2022-10-22T04:14:32;18.00;99.90
35395;DHT22;21500;45.308;9.488;2022-10-22T04:16:58;18.00;99.90
35395;DHT22;21500;45.308;9.488;2022-10-22T04:19:24;18.00;99.90
35395;DHT22;21500;45.308;9.488;2022-10-22T04:21:50;18.00;99.90
35395;DHT22;21500;45.308;9.488;2022-10-22T04:24:16;18.00;99.90
35395;DHT22;21500;45.308;9.488;2022-10-22T04:26:42;18.00;99.90
35395;DHT22;21500;45.308;9.488;2022-10-22T04:29:08;17.90;99.90
35395;DHT22;21500;45.308;9.488;2022-10-22T04:31:34;17.90;99.90
35395;DHT22;21500;45.308;9.488;2022-10-22T04:34:00;17.90;99.90
35395;DHT22;21500;45.308;9.488;2022-10-22T04:36:27;17.80;99.90
35395;DHT22;21500;45.308;9.488;2022-10-22T04:39:00;17.90;99.90
35395;DHT22;21500;45.308;9.488;2022-10-22T04:41:28;17.90;99.90
35395;DHT22;21500;45.308;9.488;2022-10-22T04:43:55;17.80;99.90
35395;DHT22;21500;45.308;9.488;2022-10-22T04:46:22;17.90;99.90
35395;DHT22;21500;45.308;9.488;2022-10-22T04:48:50;17.90;99.90
35395;DHT22;21500;45.308;9.488;2022-10-22T04:51:18;18.00;99.90
35395;DHT22;21500;45.308;9.488;2022-10-22T04:53:45;18.00;99.90
35395;DHT22;21500;45.308;9.488;2022-10-22T04:56:17;18.00;99.90
35395;DHT22;21500;45.308;9.488;2022-10-22T04:59:06;17.90;99.90
35395;DHT22;21500;45.308;9.488;2022-10-22T05:01:34;17.90;99.90
35395;DHT22;21500;45.308;9.488;2022-10-22T05:04:04;18.00;99.90
35395;DHT22;21500;45.308;9.488;2022-10-22T05:06:32;18.00;99.90
35395;DHT22;21500;45.308;9.488;2022-10-22T05:09:02;18.00;99.90
35395;DHT22;21500;45.308;9.488;2022-10-22T05:11:37;18.00;99.90
35395;DHT22;21500;45.308;9.488;2022-10-22T05:14:21;18.00;99.90
35395;DHT22;21500;45.308;9.488;2022-10-22T05:16:47;17.90;99.90
35395;DHT22;21500;45.308;9.488;2022-10-22T05:19:20;18.00;99.90
35395;DHT22;21500;45.308;9.488;2022-10-22T05:21:46;18.00;99.90
35395;DHT22;21500;45.308;9.488;2022-10-22T05:24:12;18.00;99.90
35395;DHT22;21500;45.308;9.488;2022-10-22T05:26:38;18.00;99.90
35395;DHT22;21500;45.308;9.488;2022-10-22T05:29:03;17.90;99.90
35395;DHT22;21500;45.308;9.488;2022-10-22T05:31:29;18.00;99.90
35395;DHT22;21500;45.308;9.488;2022-10-22T05:33:55;18.00;99.90
35395;DHT22;21500;45.308;9.488;2022-10-22T05:36:21;18.00;99.90
35395;DHT22;21500;45.308;9.488;2022-10-22T05:38:48;18.00;99.90
35395;DHT22;21500;45.308;9.488;2022-10-22T05:41:19;17.90;99.90
35395;DHT22;21500;45.308;9.488;2022-10-22T05:43:45;17.90;99.90
35395;DHT22;21500;45.308;9.488;2022-10-22T05:46:20;17.80;99.90
35395;DHT22;21500;45.308;9.488;2022-10-22T05:49:00;17.90;99.90
35395;DHT22;21500;45.308;9.488;2022-10-22T05:51:28;17.90;99.90
35395;DHT22;21500;45.308;9.488;2022-10-22T05:53:59;17.90;99.90
35395;DHT22;21500;45.308;9.488;2022-10-22T05:56:29;17.90;99.90
35395;DHT22;21500;45.308;9.488;2022-10-22T05:58:56;18.00;99.90
35395;DHT22;21500;45.308;9.488;2022-10-22T06:01:26;17.90;99.90
35395;DHT22;21500;45.308;9.488;2022-10-22T06:03:54;17.90;99.90
35395;DHT22;21500;45.308;9.488;2022-10-22T06:06:32;17.90;99.90
35395;DHT22;21500;45.308;9.488;2022-10-22T06:09:02;17.90;99.90
35395;DHT22;21500;45.308;9.488;2022-10-22T06:11:33;17.90;99.90
35395;DHT22;21500;45.308;9.488;2022-10-22T06:13:58;17.90;99.90
35395;DHT22;21500;45.308;9.488;2022-10-22T06:16:24;18.00;99.90
35395;DHT22;21500;45.308;9.488;2022-10-22T06:19:06;18.00;99.90
35395;DHT22;21500;45.308;9.488;2022-10-22T07:42:46;18.50;99.90
35395;DHT22;21500;45.308;9.488;2022-10-22T07:45:13;18.50;99.90
35395;DHT22;21500;45.308;9.488;2022-10-22T07:47:41;18.40;99.90
35395;DHT22;21500;45.308;9.488;2022-10-22T07:50:09;18.40;99.90
35395;DHT22;21500;45.308;9.488;2022-10-22T07:52:42;18.30;99.90
35395;DHT22;21500;45.308;9.488;2022-10-22T07:55:10;18.50;99.90
35395;DHT22;21500;45.308;9.488;2022-10-22T07:57:42;18.60;99.90
35395;DHT22;21500;45.308;9.488;2022-10-22T08:00:11;18.50;99.90
35395;DHT22;21500;45.308;9.488;2022-10-22T08:05:25;18.60;99.90
35395;DHT22;21500;45.308;9.488;2022-10-22T08:07:51;18.60;99.90
35395;DHT22;21500;45.308;9.488;2022-10-22T08:10:20;18.60;99.90
35395;DHT22;21500;45.308;9.488;2022-10-22T08:12:48;18.60;99.90
35395;DHT22;21500;45.308;9.488;2022-10-22T08:15:19;18.70;99.90
35395;DHT22;21500;45.308;9.488;2022-10-22T08:17:50;18.80;99.90
35395;DHT22;21500;45.308;9.488;2022-10-22T08:20:16;18.70;99.90
35395;DHT22;21500;45.308;9.488;2022-10-22T08:22:44;19.00;99.90
35395;DHT22;21500;45.308;9.488;2022-10-22T08:25:10;19.20;99.90
35395;DHT22;21500;45.308;9.488;2022-10-22T08:27:37;19.10;99.90
35395;DHT22;21500;45.308;9.488;2022-10-22T08:30:03;19.10;99.90
35395;DHT22;21500;45.308;9.488;2022-10-22T08:32:30;19.00;99.90
35395;DHT22;21500;45.308;9.488;2022-10-22T08:34:56;19.10;99.90
35395;DHT22;21500;45.308;9.488;2022-10-22T08:37:25;19.10;99.90
35395;DHT22;21500;45.308;9.488;2022-10-22T08:39:51;18.90;99.90
35395;DHT22;21500;45.308;9.488;2022-10-22T08:50:37;19.00;99.90
35395;DHT22;21500;45.308;9.488;2022-10-22T08:53:06;19.00;99.90
35395;DHT22;21500;45.308;9.488;2022-10-22T08:55:33;19.00;99.90
35395;DHT22;21500;45.308;9.488;2022-10-22T08:58:01;19.00;99.90
35395;DHT22;21500;45.308;9.488;2022-10-22T09:00:35;18.80;99.90
35395;DHT22;21500;45.308;9.488;2022-10-22T09:06:07;18.80;99.90
35395;DHT22;21500;45.308;9.488;2022-10-22T09:08:36;18.80;99.90
35395;DHT22;21500;45.308;9.488;2022-10-22T09:11:34;18.80;99.90
35395;DHT22;21500;45.308;9.488;2022-10-22T09:14:02;18.80;99.90
35395;DHT22;21500;45.308;9.488;2022-10-22T09:22:37;18.70;99.90
35395;DHT22;21500;45.308;9.488;2022-10-22T09:25:26;18.90;99.90
35395;DHT22;21500;45.308;9.488;2022-10-22T09:27:52;18.90;99.90
35395;DHT22;21500;45.308;9.488;2022-10-22T09:30:39;18.80;99.90
35395;DHT22;21500;45.308;9.488;2022-10-22T09:38:27;18.80;99.90
35395;DHT22;21500;45.308;9.488;2022-10-22T09:40:56;19.00;99.90
35395;DHT22;21500;45.308;9.488;2022-10-22T09:43:22;18.90;99.90
35395;DHT22;21500;45.308;9.488;2022-10-22T09:45:58;18.90;99.90
35395;DHT22;21500;45.308;9.488;2022-10-22T09:48:33;18.90;99.90
35395;DHT22;21500;45.308;9.488;2022-10-22T09:53:41;19.00;99.90
35395;DHT22;21500;45.308;9.488;2022-10-22T09:56:39;18.90;99.90
35395;DHT22;21500;45.308;9.488;2022-10-22T09:59:17;18.90;99.90
35395;DHT22;21500;45.308;9.488;2022-10-22T10:01:44;19.00;99.90
35395;DHT22;21500;45.308;9.488;2022-10-22T10:04:14;19.10;99.90
35395;DHT22;21500;45.308;9.488;2022-10-22T10:27:37;19.50;99.90
35395;DHT22;21500;45.308;9.488;2022-10-22T10:30:30;19.50;99.90
35395;DHT22;21500;45.308;9.488;2022-10-22T10:39:08;19.60;99.90
35395;DHT22;21500;45.308;9.488;2022-10-22T10:42:46;19.70;99.90
35395;DHT22;21500;45.308;9.488;2022-10-22T10:45:01;19.60;99.90
35395;DHT22;21500;45.308;9.488;2022-10-22T10:47:55;19.70;99.90
35395;DHT22;21500;45.308;9.488;2022-10-22T10:50:55;19.70;99.90
35395;DHT22;21500;45.308;9.488;2022-10-22T10:56:29;19.50;99.90
35395;DHT22;21500;45.308;9.488;2022-10-22T10:59:27;19.60;99.90
35395;DHT22;21500;45.308;9.488;2022-10-22T11:11:54;19.80;99.90
35395;DHT22;21500;45.308;9.488;2022-10-22T11:14:51;19.90;99.90
35395;DHT22;21500;45.308;9.488;2022-10-22T11:17:22;20.00;99.90
35395;DHT22;21500;45.308;9.488;2022-10-22T11:22:36;19.90;99.90
35395;DHT22;21500;45.308;9.488;2022-10-22T11:27:43;20.00;99.90
35395;DHT22;21500;45.308;9.488;2022-10-22T11:30:17;20.00;99.90
35395;DHT22;21500;45.308;9.488;2022-10-22T11:32:47;19.90;99.90
35395;DHT22;21500;45.308;9.488;2022-10-22T11:35:19;20.00;99.90
35395;DHT22;21500;45.308;9.488;2022-10-22T11:37:47;20.10;99.90
35395;DHT22;21500;45.308;9.488;2022-10-22T11:40:19;20.20;99.90
35395;DHT22;21500;45.308;9.488;2022-10-22T11:42:50;20.30;99.90
35395;DHT22;21500;45.308;9.488;2022-10-22T11:50:27;20.40;99.90
35395;DHT22;21500;45.308;9.488;2022-10-22T11:53:33;20.70;99.90
35395;DHT22;21500;45.308;9.488;2022-10-22T11:56:41;21.00;99.90
35395;DHT22;21500;45.308;9.488;2022-10-22T13:28:50;23.70;99.90
35395;DHT22;21500;45.308;9.488;2022-10-22T13:31:27;24.20;99.90
35395;DHT22;21500;45.308;9.488;2022-10-22T13:34:05;24.60;99.90
35395;DHT22;21500;45.308;9.488;2022-10-22T13:56:30;25.40;99.90
35395;DHT22;21500;45.308;9.488;2022-10-22T14:01:48;25.00;99.90
35395;DHT22;21500;45.308;9.488;2022-10-22T14:45:17;23.60;99.90
35395;DHT22;21500;45.308;9.488;2022-10-22T14:47:52;23.60;99.90
35395;DHT22;21500;45.308;9.488;2022-10-22T14:50:29;23.40;99.90
35395;DHT22;21500;45.308;9.488;2022-10-22T14:58:50;23.90;99.90
35395;DHT22;21500;45.308;9.488;2022-10-22T15:01:24;23.90;99.90
35395;DHT22;21500;45.308;9.488;2022-10-22T15:21:03;24.40;99.90
35395;DHT22;21500;45.308;9.488;2022-10-22T15:27:43;23.30;99.90
35395;DHT22;21500;45.308;9.488;2022-10-22T19:54:51;19.00;99.90
35395;DHT22;21500;45.308;9.488;2022-10-22T19:57:17;19.00;99.90
35395;DHT22;21500;45.308;9.488;2022-10-22T19:59:48;18.90;99.90
35395;DHT22;21500;45.308;9.488;2022-10-22T20:02:18;18.90;99.90
35395;DHT22;21500;45.308;9.488;2022-10-22T20:04:47;19.00;99.90
35395;DHT22;21500;45.308;9.488;2022-10-22T20:07:22;19.00;99.90
35395;DHT22;21500;45.308;9.488;2022-10-22T20:09:53;19.00;99.90
35395;DHT22;21500;45.308;9.488;2022-10-22T20:12:26;18.90;99.90
35395;DHT22;21500;45.308;9.488;2022-10-22T20:14:53;19.10;99.90
35395;DHT22;21500;45.308;9.488;2022-10-22T20:17:23;19.20;99.90
35395;DHT22;21500;45.308;9.488;2022-10-22T20:20:09;19.20;99.90
35395;DHT22;21500;45.308;9.488;2022-10-22T20:22:40;19.20;99.90
35395;DHT22;21500;45.308;9.488;2022-10-22T20:25:41;19.30;99.90
35395;DHT22;21500;45.308;9.488;2022-10-22T20:28:14;19.30;99.90
35395;DHT22;21500;45.308;9.488;2022-10-22T20:30:47;19.30;99.90
35395;DHT22;21500;45.308;9.488;2022-10-22T20:33:15;19.30;99.90
35395;DHT22;21500;45.308;9.488;2022-10-22T20:35:59;19.30;99.90
35395;DHT22;21500;45.308;9.488;2022-10-22T20:38:28;19.20;99.90
35395;DHT22;21500;45.308;9.488;2022-10-22T20:41:25;19.30;99.90
35395;DHT22;21500;45.308;9.488;2022-10-22T20:44:06;19.20;99.90
35395;DHT22;21500;45.308;9.488;2022-10-22T20:47:18;19.10;99.90
35395;DHT22;21500;45.308;9.488;2022-10-22T20:49:47;19.20;99.90
35395;DHT22;21500;45.308;9.488;2022-10-22T20:52:14;19.10;99.90
35395;DHT22;21500;45.308;9.488;2022-10-22T20:54:53;19.10;99.90
35395;DHT22;21500;45.308;9.488;2022-10-22T20:57:21;19.10;99.90
35395;DHT22;21500;45.308;9.488;2022-10-22T20:59:49;19.10;99.90
35395;DHT22;21500;45.308;9.488;2022-10-22T21:02:16;19.10;99.90
35395;DHT22;21500;45.308;9.488;2022-10-22T21:04:42;19.10;99.90
35395;DHT22;21500;45.308;9.488;2022-10-22T21:07:08;19.10;99.90
35395;DHT22;21500;45.308;9.488;2022-10-22T21:09:34;19.10;99.90
35395;DHT22;21500;45.308;9.488;2022-10-22T21:11:59;19.10;99.90
35395;DHT22;21500;45.308;9.488;2022-10-22T21:14:28;19.10;99.90
35395;DHT22;21500;45.308;9.488;2022-10-22T21:16:54;19.00;99.90
35395;DHT22;21500;45.308;9.488;2022-10-22T21:19:21;19.10;99.90
35395;DHT22;21500;45.308;9.488;2022-10-22T21:21:48;19.10;99.90
35395;DHT22;21500;45.308;9.488;2022-10-22T21:24:14;19.10;99.90
35395;DHT22;21500;45.308;9.488;2022-10-22T21:26:40;19.00;99.90
35395;DHT22;21500;45.308;9.488;2022-10-22T21:29:07;19.00;99.90
35395;DHT22;21500;45.308;9.488;2022-10-22T21:31:33;19.00;99.90
35395;DHT22;21500;45.308;9.488;2022-10-22T21:33:59;18.90;99.90
35395;DHT22;21500;45.308;9.488;2022-10-22T21:36:25;18.90;99.90
35395;DHT22;21500;45.308;9.488;2022-10-22T21:38:51;18.90;99.90
35395;DHT22;21500;45.308;9.488;2022-10-22T21:41:19;18.80;99.90
35395;DHT22;21500;45.308;9.488;2022-10-22T21:43:45;18.80;99.90
35395;DHT22;21500;45.308;9.488;2022-10-22T21:46:12;18.80;99.90
35395;DHT22;21500;45.308;9.488;2022-10-22T21:48:38;18.80;99.90
35395;DHT22;21500;45.308;9.488;2022-10-22T21:51:10;18.80;99.90
35395;DHT22;21500;45.308;9.488;2022-10-22T21:53:37;18.70;99.90
35395;DHT22;21500;45.308;9.488;2022-10-22T21:56:04;18.70;99.90
35395;DHT22;21500;45.308;9.488;2022-10-22T21:58:29;18.70;99.90
35395;DHT22;21500;45.308;9.488;2022-10-22T22:00:56;18.60;99.90
35395;DHT22;21500;45.308;9.488;2022-10-22T22:03:23;18.60;99.90
35395;DHT22;21500;45.308;9.488;2022-10-22T22:05:49;18.60;99.90
35395;DHT22;21500;45.308;9.488;2022-10-22T22:08:15;18.60;99.90
35395;DHT22;21500;45.308;9.488;2022-10-22T22:10:41;18.50;99.90
35395;DHT22;21500;45.308;9.488;2022-10-22T22:13:07;18.50;99.90
35395;DHT22;21500;45.308;9.488;2022-10-22T22:15:33;18.50;99.90
35395;DHT22;21500;45.308;9.488;2022-10-22T22:18:02;18.50;99.90
35395;DHT22;21500;45.308;9.488;2022-10-22T22:20:28;18.50;99.90
35395;DHT22;21500;45.308;9.488;2022-10-22T22:22:55;18.60;99.90
35395;DHT22;21500;45.308;9.488;2022-10-22T22:25:21;18.50;99.90
35395;DHT22;21500;45.308;9.488;2022-10-22T22:27:47;18.50;99.90
35395;DHT22;21500;45.308;9.488;2022-10-22T22:30:12;18.50;99.90
35395;DHT22;21500;45.308;9.488;2022-10-22T22:32:39;18.50;99.90
35395;DHT22;21500;45.308;9.488;2022-10-22T22:35:05;18.50;99.90
35395;DHT22;21500;45.308;9.488;2022-10-22T22:37:31;18.50;99.90
35395;DHT22;21500;45.308;9.488;2022-10-22T22:39:57;18.50;99.90
35395;DHT22;21500;45.308;9.488;2022-10-22T22:42:22;18.50;99.90
35395;DHT22;21500;45.308;9.488;2022-10-22T22:44:48;18.50;99.90
35395;DHT22;21500;45.308;9.488;2022-10-22T22:47:14;18.50;99.90
35395;DHT22;21500;45.308;9.488;2022-10-22T22:49:40;18.50;99.90
35395;DHT22;21500;45.308;9.488;2022-10-22T22:52:05;18.50;99.90
35395;DHT22;21500;45.308;9.488;2022-10-22T22:54:31;18.40;99.90
35395;DHT22;21500;45.308;9.488;2022-10-22T22:56:57;18.40;99.90
35395;DHT22;21500;45.308;9.488;2022-10-22T22:59:23;18.40;99.90
35395;DHT22;21500;45.308;9.488;2022-10-22T23:01:48;18.30;99.90
35395;DHT22;21500;45.308;9.488;2022-10-22T23:04:17;18.20;99.90
35395;DHT22;21500;45.308;9.488;2022-10-22T23:06:47;18.20;99.90
35395;DHT22;21500;45.308;9.488;2022-10-22T23:09:14;18.20;99.90
35395;DHT22;21500;45.308;9.488;2022-10-22T23:11:41;18.20;99.90
35395;DHT22;21500;45.308;9.488;2022-10-22T23:14:10;18.20;99.90
35395;DHT22;21500;45.308;9.488;2022-10-22T23:16:40;18.20;99.90
35395;DHT22;21500;45.308;9.488;2022-10-22T23:19:07;18.20;99.90
35395;DHT22;21500;45.308;9.488;2022-10-22T23:21:36;18.10;99.90
35395;DHT22;21500;45.308;9.488;2022-10-22T23:24:05;18.20;99.90
35395;DHT22;21500;45.308;9.488;2022-10-22T23:26:34;18.20;99.90
35395;DHT22;21500;45.308;9.488;2022-10-22T23:29:05;18.20;99.90
35395;DHT22;21500;45.308;9.488;2022-10-22T23:31:32;18.20;99.90
35395;DHT22;21500;45.308;9.488;2022-10-22T23:33:58;18.20;99.90
35395;DHT22;21500;45.308;9.488;2022-10-22T23:36:24;18.10;99.90
35395;DHT22;21500;45.308;9.488;2022-10-22T23:38:50;18.10;99.90
35395;DHT22;21500;45.308;9.488;2022-10-22T23:41:16;18.10;99.90
35395;DHT22;21500;45.308;9.488;2022-10-22T23:43:42;18.10;99.90
35395;DHT22;21500;45.308;9.488;2022-10-22T23:46:10;18.10;99.90
35395;DHT22;21500;45.308;9.488;2022-10-22T23:48:37;18.10;99.90
35395;DHT22;21500;45.308;9.488;2022-10-22T23:51:09;18.10;99.90
35395;DHT22;21500;45.308;9.488;2022-10-22T23:53:36;18.00;99.90
35395;DHT22;21500;45.308;9.488;2022-10-22T23:56:04;18.10;99.90
35395;DHT22;21500;45.308;9.488;2022-10-22T23:58:30;18.00;99.90
